Time;durP1;ratioP1;P1;durP2;ratioP2;P2;SDS_P1;SDS_P2;PMS_P1;PMS_P2;Temp;Humidity;BMP_temperature;BMP_pressure;BME280_temperature;BME280_humidity;BME280_pressure;Samples;Min_cycle;Max_cycle;Signal;HPM_P1;HPM_P2
2023/11/26 00:01:04;;;;;;;10.93;6.53;;;0.00;99.90;;;;;;5819604;24;20400;-85
2023/11/26 00:26:02;;;;;;;7.97;5.57;;;-0.40;99.90;;;;;;5743457;24;20247;-82
2023/11/26 00:46:31;;;;;;;8.20;4.80;;;-0.10;99.90;;;;;;5795743;24;20428;-83
2023/11/26 01:07:06;;;;;;;10.37;6.10;;;-0.40;99.90;;;;;;5904390;24;20405;-82
2023/11/26 01:32:19;;;;;;;9.63;6.03;;;-0.30;99.90;;;;;;5896686;23;20646;-85
2023/11/26 02:02:43;;;;;;;8.50;6.00;;;-0.40;99.90;;;;;;5824562;24;20181;-85
2023/11/26 02:38:02;;;;;;;7.60;5.57;;;-0.20;99.90;;;;;;5762247;24;20557;-81
2023/11/26 03:03:38;;;;;;;7.67;5.07;;;-0.10;99.90;;;;;;5918516;23;20161;-81
2023/11/26 03:33:39;;;;;;;6.73;5.50;;;0.00;99.90;;;;;;5861420;24;20601;-85
2023/11/26 04:19:49;;;;;;;7.60;6.70;;;0.00;99.90;;;;;;5668097;24;20174;-84
2023/11/26 04:45:00;;;;;;;7.13;4.70;;;0.00;99.90;;;;;;5705926;24;20460;-82
2023/11/26 06:32:01;;;;;;;9.10;6.17;;;-0.30;99.90;;;;;;5632285;24;20328;-86
2023/11/26 07:02:20;;;;;;;8.40;7.00;;;0.10;99.90;;;;;;5927797;23;20474;-81
2023/11/26 07:37:57;;;;;;;8.70;6.40;;;0.10;99.90;;;;;;5929494;23;20256;-83
2023/11/26 08:12:52;;;;;;;8.93;5.77;;;-0.10;99.90;;;;;;5786978;24;20438;-85
2023/11/26 08:43:46;;;;;;;7.30;5.47;;;0.30;99.60;;;;;;5757116;24;20744;-84
2023/11/26 09:44:48;;;;;;;8.63;5.67;;;0.60;99.90;;;;;;5749017;24;20349;-87
2023/11/26 10:20:24;;;;;;;7.90;5.50;;;0.90;99.90;;;;;;5622193;24;20740;-82
2023/11/26 10:45:31;;;;;;;7.23;5.20;;;1.00;99.90;;;;;;5686997;24;20190;-81
2023/11/26 11:05:49;;;;;;;5.10;3.77;;;1.50;95.70;;;;;;5708331;24;20278;-81
2023/11/26 11:35:54;;;;;;;5.37;3.30;;;1.50;90.70;;;;;;5733061;23;20503;-80
2023/11/26 11:56:38;;;;;;;3.90;2.60;;;1.50;90.90;;;;;;5703944;24;20196;-84
2023/11/26 12:17:07;;;;;;;4.40;2.60;;;1.40;90.90;;;;;;5684830;24;20222;-82
2023/11/26 12:37:22;;;;;;;3.53;2.10;;;1.80;88.10;;;;;;5723673;24;20570;-79
2023/11/26 13:02:15;;;;;;;2.83;2.43;;;1.70;88.20;;;;;;5542290;24;20622;-81
2023/11/26 13:23:01;;;;;;;3.13;2.83;;;1.70;90.80;;;;;;5486334;24;20256;-83
2023/11/26 13:52:56;;;;;;;3.97;3.00;;;1.30;92.20;;;;;;5565330;24;20721;-80
2023/11/26 14:33:55;;;;;;;4.77;3.50;;;1.10;92.80;;;;;;5526719;25;20220;-83
2023/11/26 14:58:49;;;;;;;5.57;3.90;;;0.80;99.40;;;;;;5583555;24;21099;-82
2023/11/26 15:19:49;;;;;;;5.63;5.07;;;0.60;99.90;;;;;;5550462;25;20214;-82
2023/11/26 15:44:28;;;;;;;6.57;4.70;;;0.40;99.90;;;;;;5468498;25;20364;-81
2023/11/26 16:05:25;;;;;;;6.40;4.97;;;0.50;99.90;;;;;;5512146;25;20201;-83
2023/11/26 16:30:29;;;;;;;10.33;6.07;;;0.30;99.90;;;;;;5609424;24;20289;-82
2023/11/26 16:50:58;;;;;;;8.07;5.43;;;0.50;99.90;;;;;;5582813;24;20250;-82
2023/11/26 17:16:32;;;;;;;7.27;5.27;;;0.50;99.90;;;;;;5646690;24;20701;-81
2023/11/26 17:20:59;;;;;;;7.10;5.10;;;0.50;99.90;;;;;;5569869;24;20553;-83
2023/11/26 17:41:42;;;;;;;8.93;5.80;;;0.60;99.90;;;;;;5784851;23;20736;-80
2023/11/26 18:01:59;;;;;;;10.03;6.17;;;0.50;99.90;;;;;;5665104;24;20196;-82
2023/11/26 18:27:09;;;;;;;8.57;6.07;;;0.60;99.90;;;;;;5534625;24;20646;-82
2023/11/26 18:42:35;;;;;;;8.77;6.40;;;0.60;99.90;;;;;;5715378;24;20209;-83
2023/11/26 19:07:57;;;;;;;8.43;5.60;;;0.60;99.90;;;;;;5640084;25;20180;-84
2023/11/26 20:13:28;;;;;;;9.30;6.20;;;0.40;99.90;;;;;;5888404;23;20571;-85
2023/11/26 20:39:26;;;;;;;12.37;7.50;;;0.30;99.90;;;;;;5757344;24;20319;-82
2023/11/26 21:09:11;;;;;;;10.67;6.93;;;0.30;99.90;;;;;;5720987;24;20515;-85
2023/11/26 21:34:33;;;;;;;9.70;7.00;;;0.30;99.90;;;;;;5759640;24;21441;-85
2023/11/26 21:50:31;;;;;;;8.67;6.97;;;0.40;99.90;;;;;;5590514;25;20421;-83
2023/11/26 22:25:50;;;;;;;9.03;6.17;;;0.60;99.90;;;;;;5724117;24;20219;-83
2023/11/26 22:50:47;;;;;;;11.60;6.97;;;0.40;99.90;;;;;;5580614;25;20418;-84
